Allison Park, PA

11:34 PM EST on February 26, 2015 (GMT -0500)
Beaver County | Change Station
CLOSE
Current Station
Airport
Location: Beaver Falls,
Elevation: 1253 ft
Nearby Weather Stations

Elev 1253 ft 40.77 °N, 80.39 °W | Updated 2 hours ago

Snow
Snow
10 °F
Feels Like 0 °F
N
7
Wind Variable Wind from NNW

Today
High -- | Low -- °F
--% Chance of Precip.
Yesterday
High -- | Low -- °F
Precip. -- in
6:58 AM 6:07 PM
Waxing Gibbous, 65% visible
Pressure 30.15 in
Visibility 7.0 miles
Clouds Scattered Clouds 4600 ft
Scattered Clouds 6000 ft
Overcast 10000 ft
Windchill 0 °F
Dew Point 5 °F
Humidity 79%
Rainfall 0.00 in
Snow Depth Not available.
UV 0 out of 12
Pollen .50 out of 12
Air Quality Not available.
Flu Activity Not available.
METAR KBVI 270147Z 33006KT 7SM -SN SCT046 SCT060 OVC100 M12/M15 A3015 RMK LAST

More Conditions Fewer Conditions

Pressure 30.15 in
Visibility 7.0 miles
Clouds Scattered Clouds 4600 ft
Scattered Clouds 6000 ft
Overcast 10000 ft
Windchill 0 °F
Dew Point 5 °F
Humidity 79%
Rainfall 0.00 in
Snow Depth Not available.
UV 0 out of 12
Pollen .50 out of 12
Air Quality Not available.
Flu Activity Not available.
METAR KBVI 270147Z 33006KT 7SM -SN SCT046 SCT060 OVC100 M12/M15 A3015 RMK LAST

More Conditions Fewer Conditions

10-Day Weather Forecast

Almanac

Astronomy

Feb. 26, 2015 Rise Set
Actual Time
Civil Twilight
Nautical Twilight
Astronomical Twilight
Moon
Length of Visible Light
Length of Day
Tomorrow will be .
, % of the Moon is Illuminated

Today's Extremes

State Highs State Lows

Community

WunderPhotos

Upload Photos

1,800,623 photos uploaded!

WunderBlogs® & News

Nearby

Air Quality

  Air Quality AQ Index Pollutant
Not available.

Snow Depth

Station Depth Elevation

Earthquake Activity

City Distance Mag. Time & Date
Minimum magnitude displayed is 2.5.

Coastal Water Temperatures

Place Temperature

Nearby Weather Stations